createdAt,value
2019-02-19T00:02:20.596Z,20.13
2019-02-19T00:04:49.002Z,18.53
2019-02-19T00:07:17.412Z,20.03
2019-02-19T00:09:46.100Z,19.17
2019-02-19T00:12:14.515Z,18.07
2019-02-19T00:14:42.923Z,19.50
2019-02-19T00:17:11.345Z,19.00
2019-02-19T00:19:39.745Z,18.83
2019-02-19T00:22:08.176Z,19.90
2019-02-19T00:24:36.581Z,18.10
2019-02-19T00:27:05.118Z,18.13
2019-02-19T00:29:33.520Z,17.57
2019-02-19T00:32:01.934Z,17.67
2019-02-19T00:34:30.336Z,19.37
2019-02-19T00:36:58.749Z,17.97
2019-02-19T00:39:27.161Z,19.43
2019-02-19T00:41:55.584Z,19.50
2019-02-19T00:44:24.854Z,18.77
2019-02-19T00:46:53.268Z,17.67
2019-02-19T00:49:21.672Z,17.70
2019-02-19T00:51:50.107Z,18.60
2019-02-19T00:54:18.593Z,17.23
2019-02-19T00:56:47.002Z,18.30
2019-02-19T00:59:15.455Z,17.43
2019-02-19T01:01:43.852Z,18.87
2019-02-19T01:04:12.276Z,16.23
2019-02-19T01:06:40.700Z,17.30
2019-02-19T01:09:09.956Z,20.83
2019-02-19T01:11:38.355Z,18.30
2019-02-19T01:14:07.068Z,17.80
2019-02-19T01:16:35.475Z,16.63
2019-02-19T01:19:04.076Z,17.93
2019-02-19T01:21:32.731Z,18.40
2019-02-19T01:24:01.410Z,18.20
2019-02-19T01:26:29.918Z,16.80
2019-02-19T01:28:58.442Z,18.60
2019-02-19T01:31:28.744Z,18.23
2019-02-19T01:33:57.160Z,18.07
2019-02-19T01:36:25.562Z,18.70
2019-02-19T01:38:53.972Z,19.57
2019-02-19T01:41:22.412Z,19.67
2019-02-19T01:43:50.818Z,18.10
2019-02-19T01:46:19.227Z,20.03
2019-02-19T01:48:47.650Z,20.33
2019-02-19T01:51:16.043Z,19.53
2019-02-19T01:53:44.462Z,19.67
2019-02-19T01:56:12.869Z,19.97
2019-02-19T01:58:41.288Z,21.80
2019-02-19T02:01:09.693Z,20.30
2019-02-19T02:03:38.104Z,20.30
2019-02-19T02:06:06.516Z,20.50
2019-02-19T02:08:34.927Z,20.83
2019-02-19T02:11:03.334Z,19.80
2019-02-19T02:13:31.749Z,20.93
2019-02-19T02:16:00.185Z,20.17
2019-02-19T02:18:28.627Z,21.43
2019-02-19T02:20:57.037Z,22.03
2019-02-19T02:23:25.449Z,21.70
2019-02-19T02:25:53.881Z,21.87
2019-02-19T02:28:22.280Z,22.00
2019-02-19T02:30:50.701Z,21.40
2019-02-19T02:33:19.188Z,20.40
2019-02-19T02:35:47.681Z,21.63
2019-02-19T02:38:16.088Z,22.77
2019-02-19T02:40:44.500Z,23.23
2019-02-19T02:43:12.932Z,24.13
2019-02-19T02:45:50.575Z,24.27
2019-02-19T02:48:11.469Z,23.97
2019-02-19T02:50:39.894Z,19.70
2019-02-19T02:53:08.369Z,22.17
2019-02-19T02:55:36.784Z,21.87
2019-02-19T02:58:05.197Z,23.20
2019-02-19T03:00:33.612Z,25.10
2019-02-19T03:03:02.036Z,23.10
2019-02-19T03:05:30.457Z,24.53
2019-02-19T03:08:00.508Z,22.70
2019-02-19T03:10:29.092Z,24.20
2019-02-19T03:12:57.518Z,23.87
2019-02-19T03:15:25.946Z,24.60
2019-02-19T03:17:54.344Z,23.63
2019-02-19T03:20:22.758Z,23.00
2019-02-19T03:22:51.166Z,23.93
2019-02-19T03:25:19.581Z,23.00
2019-02-19T03:27:47.986Z,25.13
2019-02-19T03:30:16.420Z,25.77
2019-02-19T03:32:44.812Z,24.20
2019-02-19T03:35:13.251Z,25.07
2019-02-19T03:37:41.652Z,25.43
2019-02-19T03:40:10.220Z,25.87
2019-02-19T03:42:38.912Z,25.63
2019-02-19T03:45:10.136Z,24.40
2019-02-19T03:47:38.557Z,26.40
2019-02-19T03:50:07.306Z,23.50
2019-02-19T03:52:35.723Z,25.50
2019-02-19T03:55:04.495Z,26.40
2019-02-19T03:57:33.278Z,25.13
2019-02-19T04:00:01.696Z,25.57
2019-02-19T04:02:30.172Z,25.30
2019-02-19T04:04:58.572Z,25.60
2019-02-19T04:07:27.000Z,23.00
2019-02-19T04:09:55.402Z,26.57
2019-02-19T04:12:23.821Z,28.73
2019-02-19T04:14:52.429Z,26.70
2019-02-19T04:17:20.838Z,28.10
2019-02-19T04:19:49.241Z,26.00
2019-02-19T04:22:17.660Z,29.07
2019-02-19T04:24:46.065Z,28.67
2019-02-19T04:27:14.521Z,25.20
2019-02-19T04:29:42.997Z,27.70
2019-02-19T04:32:11.429Z,25.60
2019-02-19T04:34:39.903Z,27.23
2019-02-19T04:37:08.851Z,27.77
2019-02-19T04:39:37.250Z,28.30
2019-02-19T04:42:05.672Z,26.37
2019-02-19T04:44:34.096Z,28.07
2019-02-19T04:47:02.519Z,27.60
2019-02-19T04:49:30.927Z,27.60
2019-02-19T04:51:59.340Z,28.67
2019-02-19T04:54:27.761Z,26.63
2019-02-19T04:56:56.175Z,27.90
2019-02-19T04:59:24.584Z,27.53
2019-02-19T05:01:52.997Z,27.33
2019-02-19T05:04:21.418Z,27.90
2019-02-19T05:06:49.812Z,26.40
2019-02-19T05:09:18.235Z,29.40
2019-02-19T05:11:46.661Z,27.53
2019-02-19T05:14:15.136Z,29.70
2019-02-19T05:16:43.550Z,30.13
2019-02-19T05:19:11.956Z,31.93
2019-02-19T05:21:40.479Z,27.77
2019-02-19T05:24:08.889Z,32.10
2019-02-19T05:26:37.290Z,30.87
2019-02-19T05:29:05.775Z,30.80
2019-02-19T05:31:34.171Z,30.20
2019-02-19T05:34:02.596Z,32.97
2019-02-19T05:36:31.010Z,32.27
2019-02-19T05:38:59.428Z,31.40
2019-02-19T05:41:27.830Z,30.97
2019-02-19T05:43:56.235Z,29.57
2019-02-19T05:46:24.640Z,32.93
2019-02-19T05:48:53.068Z,24.87
2019-02-19T05:51:21.480Z,31.33
2019-02-19T05:53:50.006Z,33.43
2019-02-19T05:56:18.418Z,30.30
2019-02-19T05:58:46.837Z,32.00
2019-02-19T06:01:15.258Z,33.97
2019-02-19T06:03:43.659Z,30.53
2019-02-19T06:06:12.079Z,32.50
2019-02-19T06:08:40.483Z,29.20
2019-02-19T06:11:08.896Z,32.50
2019-02-19T06:13:37.304Z,28.43
2019-02-19T06:16:05.738Z,27.40
2019-02-19T06:18:34.233Z,29.97
2019-02-19T06:21:02.648Z,29.10
2019-02-19T06:23:31.053Z,29.10
2019-02-19T06:25:59.473Z,31.83
2019-02-19T06:28:27.884Z,28.07
2019-02-19T06:30:56.301Z,31.00
2019-02-19T06:33:26.469Z,26.33
2019-02-19T06:35:55.028Z,27.73
2019-02-19T06:38:23.494Z,28.37
2019-02-19T06:40:51.885Z,28.57
2019-02-19T06:43:20.292Z,32.20
2019-02-19T06:45:48.713Z,30.00
2019-02-19T06:48:17.120Z,30.13
2019-02-19T06:50:45.533Z,30.23
2019-02-19T06:53:13.928Z,26.67
2019-02-19T06:55:42.341Z,31.17
2019-02-19T06:58:10.752Z,31.67
2019-02-19T07:00:39.184Z,29.00
2019-02-19T07:03:18.153Z,28.97
2019-02-19T07:05:47.018Z,29.30
2019-02-19T07:08:16.092Z,27.83
2019-02-19T07:10:44.517Z,26.90
2019-02-19T07:13:12.918Z,27.33
2019-02-19T07:15:41.569Z,26.47
2019-02-19T07:18:09.971Z,26.23
2019-02-19T07:20:38.952Z,23.40
2019-02-19T07:23:08.223Z,24.97
2019-02-19T07:25:36.656Z,26.20
2019-02-19T07:28:05.068Z,27.43
2019-02-19T07:30:33.482Z,26.13
2019-02-19T07:33:02.022Z,25.57
2019-02-19T07:35:30.422Z,24.20
2019-02-19T07:37:59.036Z,25.33
2019-02-19T07:40:27.482Z,24.37
2019-02-19T07:42:55.908Z,26.13
2019-02-19T07:45:24.332Z,23.67
2019-02-19T07:47:52.752Z,24.87
2019-02-19T07:50:21.602Z,24.13
2019-02-19T07:52:50.143Z,24.33
2019-02-19T07:55:18.557Z,25.30
2019-02-19T07:57:46.955Z,23.77
2019-02-19T08:00:15.394Z,24.27
2019-02-19T08:02:43.837Z,24.00
2019-02-19T08:05:12.267Z,21.77
2019-02-19T08:07:40.719Z,19.70
2019-02-19T08:10:11.069Z,23.23
2019-02-19T08:12:39.496Z,18.67
2019-02-19T08:15:10.710Z,19.10
2019-02-19T08:17:39.122Z,20.00
2019-02-19T08:20:15.442Z,17.97
2019-02-19T08:22:39.613Z,18.93
2019-02-19T08:25:09.448Z,19.83
2019-02-19T08:27:37.931Z,16.70
2019-02-19T08:30:08.879Z,19.33
2019-02-19T08:32:37.282Z,18.83
2019-02-19T08:35:07.464Z,17.70
2019-02-19T08:37:36.001Z,14.43
2019-02-19T08:40:05.803Z,20.23
2019-02-19T08:42:34.465Z,20.10
2019-02-19T08:45:03.135Z,18.83
2019-02-19T08:47:31.556Z,19.97
2019-02-19T08:49:59.967Z,18.50
2019-02-19T08:52:28.383Z,18.40
2019-02-19T08:54:56.801Z,20.57
2019-02-19T08:57:25.217Z,17.47
2019-02-19T08:59:53.625Z,12.17
2019-02-19T09:02:22.070Z,16.53
2019-02-19T09:04:50.482Z,17.63
2019-02-19T09:07:18.949Z,17.60
2019-02-19T09:09:47.357Z,18.20
2019-02-19T09:12:15.774Z,19.07
2019-02-19T09:14:44.227Z,19.10
2019-02-19T09:17:12.639Z,15.70
2019-02-19T09:19:41.051Z,17.30
2019-02-19T09:22:09.453Z,18.33
2019-02-19T09:24:37.911Z,16.10
2019-02-19T09:27:06.364Z,12.97
2019-02-19T09:29:34.902Z,15.47
2019-02-19T09:32:03.336Z,14.70
2019-02-19T09:34:31.762Z,13.10
2019-02-19T09:37:00.289Z,15.87
2019-02-19T09:39:30.243Z,16.17
2019-02-19T09:41:58.640Z,14.97
2019-02-19T09:44:27.057Z,9.63
2019-02-19T09:46:55.481Z,12.40
2019-02-19T09:49:23.891Z,11.60
2019-02-19T09:51:52.315Z,11.67
2019-02-19T09:54:20.719Z,14.20
2019-02-19T09:56:49.334Z,10.30
2019-02-19T09:59:17.750Z,12.77
2019-02-19T10:01:46.169Z,11.10
2019-02-19T10:04:14.616Z,9.00
2019-02-19T10:06:43.028Z,12.67
2019-02-19T10:09:11.490Z,11.73
2019-02-19T10:11:39.941Z,13.90
2019-02-19T10:14:08.372Z,12.30
2019-02-19T10:16:41.560Z,12.63
2019-02-19T10:19:07.005Z,12.70
2019-02-19T10:21:35.544Z,13.37
2019-02-19T10:24:04.033Z,12.07
2019-02-19T10:26:32.534Z,14.93
2019-02-19T10:29:00.930Z,13.93
2019-02-19T10:31:29.328Z,12.67
2019-02-19T10:33:58.056Z,12.00
2019-02-19T10:36:26.631Z,11.30
2019-02-19T10:38:55.549Z,13.87
2019-02-19T10:41:25.048Z,13.77
2019-02-19T10:43:53.520Z,11.30
2019-02-19T10:46:22.062Z,11.13
2019-02-19T10:48:50.574Z,10.73
2019-02-19T10:51:19.068Z,9.00
2019-02-19T10:53:47.581Z,11.30
2019-02-19T10:56:16.003Z,10.20
2019-02-19T10:58:44.529Z,14.63
2019-02-19T11:01:13.009Z,7.50
2019-02-19T11:03:41.494Z,12.90
2019-02-19T11:06:09.901Z,12.03
2019-02-19T11:08:38.551Z,14.50
2019-02-19T11:11:06.936Z,9.40
2019-02-19T11:13:35.402Z,13.80
2019-02-19T11:16:03.824Z,14.10
2019-02-19T11:18:32.341Z,12.60
2019-02-19T11:21:00.877Z,12.17
2019-02-19T11:23:29.382Z,14.53
2019-02-19T11:25:57.876Z,12.20
2019-02-19T11:28:26.572Z,12.27
2019-02-19T11:30:55.099Z,11.90
2019-02-19T11:33:23.521Z,13.47
2019-02-19T11:35:52.101Z,11.77
2019-02-19T11:38:20.563Z,12.37
2019-02-19T11:40:49.015Z,10.30
2019-02-19T11:43:17.429Z,10.90
2019-02-19T11:45:45.887Z,10.47
2019-02-19T11:48:14.298Z,9.97
2019-02-19T11:50:42.736Z,9.67
2019-02-19T11:53:11.203Z,11.97
2019-02-19T11:55:39.967Z,10.60
2019-02-19T11:58:08.474Z,11.47
2019-02-19T12:00:38.600Z,11.33
2019-02-19T12:03:07.187Z,10.40
2019-02-19T12:05:35.591Z,10.37
2019-02-19T12:08:04.018Z,11.23
2019-02-19T12:10:32.557Z,10.97
2019-02-19T12:13:01.064Z,10.27
2019-02-19T12:15:35.278Z,11.70
2019-02-19T12:18:02.796Z,10.90
2019-02-19T12:20:31.427Z,10.10
2019-02-19T12:22:59.921Z,7.50
2019-02-19T12:25:28.553Z,11.50
2019-02-19T12:27:57.044Z,11.37
2019-02-19T12:30:25.463Z,9.03
2019-02-19T12:32:53.864Z,10.70
2019-02-19T12:35:22.288Z,9.67
2019-02-19T12:37:50.721Z,11.40
2019-02-19T12:40:19.173Z,12.37
2019-02-19T12:42:47.704Z,10.50
2019-02-19T12:45:16.111Z,7.50
2019-02-19T12:47:44.529Z,10.03
2019-02-19T12:50:17.234Z,9.50
2019-02-19T12:52:45.640Z,7.77
2019-02-19T12:55:14.069Z,10.87
2019-02-19T12:57:42.489Z,10.87
2019-02-19T13:00:18.312Z,9.83
2019-02-19T13:02:46.728Z,9.97
2019-02-19T13:05:16.094Z,10.63
2019-02-19T13:07:44.516Z,9.80
2019-02-19T13:10:13.138Z,9.43
2019-02-19T13:12:41.631Z,11.67
2019-02-19T13:15:15.348Z,10.43
2019-02-19T13:17:43.771Z,10.33
2019-02-19T13:20:13.945Z,10.77
2019-02-19T13:22:42.734Z,11.70
2019-02-19T13:25:11.960Z,8.83
2019-02-19T13:27:40.392Z,12.10
2019-02-19T13:30:11.977Z,11.90
2019-02-19T13:32:40.397Z,11.40
2019-02-19T13:35:11.247Z,12.90
2019-02-19T13:37:39.668Z,12.60
2019-02-19T13:40:13.722Z,12.00
2019-02-19T13:42:42.159Z,13.23
2019-02-19T13:45:13.088Z,13.10
2019-02-19T13:47:41.774Z,14.83
2019-02-19T13:50:13.277Z,13.37
2019-02-19T13:52:46.045Z,12.90
2019-02-19T13:55:16.094Z,13.13
2019-02-19T13:57:44.518Z,12.50
2019-02-19T14:00:23.773Z,12.10
2019-02-19T14:02:52.184Z,10.30
2019-02-19T14:05:20.780Z,10.50
2019-02-19T14:07:49.281Z,11.93
2019-02-19T14:10:17.690Z,10.77
2019-02-19T14:12:46.116Z,11.43
2019-02-19T14:15:32.608Z,10.90
2019-02-19T14:18:02.365Z,11.00
2019-02-19T14:20:35.089Z,11.20
2019-02-19T14:23:21.312Z,11.07
2019-02-19T14:26:07.752Z,11.80
2019-02-19T14:28:37.811Z,9.40
2019-02-19T14:31:07.854Z,11.13
2019-02-19T14:33:48.955Z,9.47
2019-02-19T14:36:15.838Z,7.37
2019-02-19T14:38:52.116Z,8.20
2019-02-19T14:41:22.162Z,7.33
2019-02-19T14:44:08.690Z,6.20
2019-02-19T14:46:41.827Z,5.50
2019-02-19T14:49:31.451Z,7.40
2019-02-19T14:51:58.467Z,6.30
2019-02-19T14:54:31.668Z,7.73
2019-02-19T14:57:01.716Z,7.07
2019-02-19T14:59:31.814Z,7.57
2019-02-19T15:02:04.435Z,8.70
2019-02-19T15:04:50.624Z,7.80
2019-02-19T15:07:20.812Z,7.20
2019-02-19T15:09:56.841Z,7.60
2019-02-19T15:12:44.989Z,9.70
2019-02-19T15:15:31.211Z,6.93
2019-02-19T15:18:03.838Z,9.20
2019-02-19T15:20:50.055Z,5.80
2019-02-19T15:23:38.384Z,6.57
2019-02-19T15:26:11.075Z,3.83
2019-02-19T15:28:56.374Z,3.10
2019-02-19T15:31:38.598Z,1.57
2019-02-19T15:34:08.664Z,2.07
2019-02-19T15:36:55.140Z,2.10
2019-02-19T15:39:25.191Z,2.57
2019-02-19T15:42:11.660Z,5.40
2019-02-19T15:44:41.717Z,4.00
2019-02-19T15:47:11.777Z,4.43
2019-02-19T15:49:47.487Z,6.57
2019-02-19T15:52:19.485Z,6.27
2019-02-19T15:54:52.490Z,8.23
2019-02-19T15:57:22.527Z,9.30
2019-02-19T16:00:08.587Z,8.87
2019-02-19T16:02:41.573Z,10.30
2019-02-19T16:05:11.656Z,9.20
2019-02-19T16:07:41.685Z,7.30
2019-02-19T16:10:23.672Z,8.70
2019-02-19T16:12:56.658Z,7.73
2019-02-19T16:15:29.797Z,6.87
2019-02-19T16:18:02.777Z,7.70
2019-02-19T16:20:32.808Z,6.40
2019-02-19T16:23:05.562Z,6.60
2019-02-19T16:25:54.075Z,7.00
2019-02-19T16:28:30.174Z,6.43
2019-02-19T16:31:00.236Z,6.40
2019-02-19T16:33:32.996Z,6.27
2019-02-19T16:36:06.056Z,8.60
2019-02-19T16:38:51.395Z,6.10
2019-02-19T16:41:21.608Z,6.10
2019-02-19T16:43:51.656Z,7.30
2019-02-19T16:46:39.668Z,5.73
2019-02-19T16:49:09.705Z,6.83
2019-02-19T16:51:58.118Z,5.63
2019-02-19T16:54:31.068Z,6.47
2019-02-19T16:57:06.556Z,6.93
2019-02-19T16:59:48.460Z,6.53
2019-02-19T17:02:34.820Z,6.53
2019-02-19T17:05:08.664Z,7.33
2019-02-19T17:07:53.545Z,6.70
2019-02-19T17:10:26.472Z,5.50
2019-02-19T17:13:02.594Z,7.57
2019-02-19T17:15:51.987Z,7.83
2019-02-19T17:18:30.977Z,7.23
2019-02-19T17:21:07.006Z,7.80
2019-02-19T17:23:39.897Z,6.63
2019-02-19T17:26:12.671Z,7.90
2019-02-19T17:28:45.615Z,6.57
2019-02-19T17:31:21.427Z,8.00
2019-02-19T17:34:07.754Z,7.50
2019-02-19T17:36:40.749Z,6.47
2019-02-19T17:39:20.968Z,7.33
2019-02-19T17:41:51.046Z,6.87
2019-02-19T17:44:21.102Z,6.57
2019-02-19T17:47:07.814Z,6.37
2019-02-19T17:49:39.399Z,6.30
2019-02-19T17:52:09.460Z,7.50
2019-02-19T17:54:45.662Z,9.30
2019-02-19T17:57:18.818Z,7.73
2019-02-19T18:00:05.063Z,8.60
2019-02-19T18:02:35.161Z,8.30
2019-02-19T18:05:05.781Z,7.37
2019-02-19T18:07:35.834Z,8.37
2019-02-19T18:10:08.004Z,8.13
2019-02-19T18:12:43.928Z,8.13
2019-02-19T18:15:19.594Z,7.10
2019-02-19T18:17:55.789Z,8.57
2019-02-19T18:20:24.221Z,7.33
2019-02-19T18:22:52.640Z,7.87
2019-02-19T18:25:21.055Z,8.35
2019-02-19T18:27:49.545Z,8.83
2019-02-19T18:30:17.961Z,10.50
2019-02-19T18:32:46.371Z,9.40
2019-02-19T18:35:14.786Z,9.30
2019-02-19T18:37:43.196Z,9.50
2019-02-19T18:40:14.849Z,7.27
2019-02-19T18:42:43.312Z,8.70
2019-02-19T18:45:11.797Z,8.20
2019-02-19T18:47:40.468Z,7.40
2019-02-19T18:50:09.744Z,8.80
2019-02-19T18:52:38.179Z,8.63
2019-02-19T18:55:07.648Z,7.80
2019-02-19T18:57:36.064Z,7.50
2019-02-19T19:00:06.505Z,7.73
2019-02-19T19:02:34.916Z,9.40
2019-02-19T19:05:03.604Z,7.50
2019-02-19T19:07:32.027Z,7.67
2019-02-19T19:10:00.429Z,7.70
2019-02-19T19:12:28.851Z,8.47
2019-02-19T19:14:57.346Z,7.50
2019-02-19T19:17:25.756Z,6.80
2019-02-19T19:19:54.167Z,7.97
2019-02-19T19:22:22.569Z,7.40
2019-02-19T19:24:50.998Z,6.77
2019-02-19T19:27:19.457Z,6.73
2019-02-19T19:29:47.880Z,7.30
2019-02-19T19:32:16.273Z,6.60
2019-02-19T19:34:44.689Z,7.00
2019-02-19T19:37:13.090Z,6.50
2019-02-19T19:39:41.506Z,6.73
2019-02-19T19:42:09.912Z,6.70
2019-02-19T19:44:38.331Z,6.13
2019-02-19T19:47:06.728Z,8.87
2019-02-19T19:49:35.147Z,7.20
2019-02-19T19:52:03.557Z,9.70
2019-02-19T19:54:32.001Z,7.23
2019-02-19T19:57:00.450Z,7.27
2019-02-19T19:59:28.908Z,7.57
2019-02-19T20:01:57.319Z,6.30
2019-02-19T20:04:25.720Z,7.20
2019-02-19T20:06:54.145Z,6.43
2019-02-19T20:09:22.547Z,6.97
2019-02-19T20:11:50.955Z,7.43
2019-02-19T20:14:19.364Z,6.80
2019-02-19T20:16:47.769Z,7.97
2019-02-19T20:19:16.173Z,8.63
2019-02-19T20:21:44.596Z,10.23
2019-02-19T20:24:13.015Z,7.17
2019-02-19T20:26:41.425Z,7.53
2019-02-19T20:29:09.892Z,6.00
2019-02-19T20:31:38.310Z,7.10
2019-02-19T20:34:06.721Z,6.80
2019-02-19T20:36:35.120Z,7.77
2019-02-19T20:39:05.065Z,6.57
2019-02-19T20:41:33.456Z,6.80
2019-02-19T20:44:01.876Z,6.80
2019-02-19T20:46:30.501Z,8.40
2019-02-19T20:48:58.921Z,5.10
2019-02-19T20:51:36.176Z,6.23
2019-02-19T20:53:57.597Z,7.03
2019-02-19T20:56:26.011Z,6.63
2019-02-19T20:58:54.418Z,6.90
2019-02-19T21:01:22.844Z,6.60
2019-02-19T21:03:51.244Z,6.57
2019-02-19T21:06:19.660Z,7.37
2019-02-19T21:08:48.069Z,6.70
2019-02-19T21:11:16.488Z,8.33
2019-02-19T21:13:44.889Z,8.30
2019-02-19T21:16:14.947Z,7.33
2019-02-19T21:18:43.354Z,9.03
2019-02-19T21:21:24.326Z,6.97
2019-02-19T21:23:52.906Z,8.00
2019-02-19T21:26:21.320Z,7.83
2019-02-19T21:28:49.719Z,9.00
2019-02-19T21:31:18.128Z,9.33
2019-02-19T21:33:46.527Z,9.97
2019-02-19T21:36:14.941Z,9.03
2019-02-19T21:38:43.344Z,9.40
2019-02-19T21:41:11.872Z,8.90
2019-02-19T21:43:40.329Z,8.50
2019-02-19T21:46:08.792Z,9.70
2019-02-19T21:48:37.469Z,7.43
2019-02-19T21:51:06.069Z,8.57
2019-02-19T21:53:34.473Z,9.20
2019-02-19T21:56:05.804Z,8.57
2019-02-19T21:58:34.217Z,9.43
2019-02-19T22:01:02.745Z,9.60
2019-02-19T22:03:31.209Z,10.27
2019-02-19T22:05:59.697Z,8.60
2019-02-19T22:08:28.148Z,10.03
2019-02-19T22:10:59.505Z,9.73
2019-02-19T22:13:27.920Z,10.87
2019-02-19T22:15:56.360Z,9.43
2019-02-19T22:18:24.761Z,10.50
2019-02-19T22:20:54.862Z,7.27
2019-02-19T22:23:23.253Z,10.20
2019-02-19T22:25:51.729Z,11.47
2019-02-19T22:28:22.763Z,11.30
2019-02-19T22:30:51.070Z,11.50
2019-02-19T22:33:19.898Z,11.50
2019-02-19T22:35:48.312Z,11.57
2019-02-19T22:38:18.433Z,13.00
2019-02-19T22:40:54.831Z,12.13
2019-02-19T22:43:16.975Z,12.77
2019-02-19T22:45:45.531Z,13.10
2019-02-19T22:48:15.181Z,11.90
2019-02-19T22:50:43.696Z,13.80
2019-02-19T22:53:13.785Z,12.13
2019-02-19T22:55:51.685Z,12.80
2019-02-19T22:58:20.273Z,13.83
2019-02-19T23:00:50.957Z,13.80
2019-02-19T23:03:21.018Z,9.83
2019-02-19T23:05:49.451Z,14.40
2019-02-19T23:08:17.880Z,12.70
2019-02-19T23:10:46.280Z,14.33
2019-02-19T23:13:15.269Z,15.23
2019-02-19T23:15:43.674Z,15.80
2019-02-19T23:18:12.089Z,15.57
2019-02-19T23:20:40.512Z,18.97
2019-02-19T23:23:09.107Z,13.20
2019-02-19T23:25:37.537Z,13.20
2019-02-19T23:28:05.948Z,15.60
2019-02-19T23:30:34.440Z,14.97
2019-02-19T23:33:02.865Z,13.77
2019-02-19T23:35:35.948Z,12.73
2019-02-19T23:38:04.368Z,14.30
2019-02-19T23:40:32.766Z,14.80
2019-02-19T23:43:01.387Z,15.40
2019-02-19T23:45:29.792Z,13.50
2019-02-19T23:47:58.372Z,14.30
2019-02-19T23:50:26.780Z,14.40
2019-02-19T23:52:55.216Z,14.60
2019-02-19T23:55:24.372Z,15.60
2019-02-19T23:57:52.800Z,15.13
